Time;durP1;ratioP1;P1;durP2;ratioP2;P2;SDS_P1;SDS_P2;PMS_P1;PMS_P2;Temp;Humidity;BMP_temperature;BMP_pressure;BME280_temperature;BME280_humidity;BME280_pressure;Samples;Min_cycle;Max_cycle;Signal;HPM_P1;HPM_P2
2023/08/03 00:01:17;;;;;;;4.70;1.08;;;15.80;99.90;;;;;;5120784;27;20204;-96
2023/08/03 00:03:43;;;;;;;2.10;1.00;;;15.80;99.90;;;;;;5101804;27;20742;-96
2023/08/03 00:06:09;;;;;;;4.68;1.15;;;16.10;99.90;;;;;;5100103;27;20035;-95
2023/08/03 00:08:34;;;;;;;3.83;0.95;;;15.70;99.90;;;;;;5102197;27;20536;-94
2023/08/03 00:11:00;;;;;;;1.83;0.95;;;15.80;99.90;;;;;;5082856;27;20501;-95
2023/08/03 00:13:26;;;;;;;4.35;1.25;;;16.00;99.90;;;;;;5098160;27;20035;-96
2023/08/03 00:15:52;;;;;;;4.60;1.10;;;16.10;99.90;;;;;;5094178;27;20051;-96
2023/08/03 00:18:18;;;;;;;4.40;0.93;;;16.00;99.90;;;;;;5081435;27;20043;-96
2023/08/03 00:20:46;;;;;;;2.17;0.98;;;16.00;99.90;;;;;;5114765;27;20307;-96
2023/08/03 00:23:12;;;;;;;4.47;1.20;;;16.10;99.90;;;;;;5101941;27;20133;-96
2023/08/03 00:25:38;;;;;;;2.53;0.98;;;15.80;99.90;;;;;;5091894;27;20126;-96
2023/08/03 00:28:04;;;;;;;3.25;0.77;;;16.00;99.90;;;;;;5118555;27;20678;-96
2023/08/03 00:30:29;;;;;;;2.63;0.90;;;15.70;99.90;;;;;;5120280;27;20042;-95
2023/08/03 00:32:55;;;;;;;3.25;1.33;;;15.80;99.90;;;;;;5097534;27;20035;-96
2023/08/03 00:35:21;;;;;;;2.35;0.93;;;15.70;99.90;;;;;;5100223;27;20485;-95
2023/08/03 00:37:47;;;;;;;2.10;0.70;;;16.00;99.90;;;;;;5104289;27;20080;-96
2023/08/03 00:40:12;;;;;;;2.25;0.95;;;15.80;99.90;;;;;;5102211;27;20038;-95
2023/08/03 00:42:39;;;;;;;4.40;0.90;;;16.10;99.90;;;;;;5113900;27;20120;-95
2023/08/03 00:45:05;;;;;;;1.85;0.70;;;15.80;99.90;;;;;;5116210;27;20042;-95
2023/08/03 00:47:31;;;;;;;1.88;0.82;;;15.80;99.90;;;;;;5085017;27;20039;-96
2023/08/03 00:49:56;;;;;;;2.50;0.70;;;15.80;99.90;;;;;;5101939;27;20046;-96
2023/08/03 00:52:23;;;;;;;1.80;0.95;;;16.00;99.90;;;;;;5076345;27;20039;-96
2023/08/03 00:54:49;;;;;;;6.25;1.08;;;16.00;99.90;;;;;;5082455;27;20035;-96
2023/08/03 00:57:14;;;;;;;2.70;0.82;;;15.80;99.90;;;;;;5087143;27;20473;-96
2023/08/03 00:59:43;;;;;;;1.92;0.60;;;16.00;99.90;;;;;;5094606;27;20031;-96
2023/08/03 01:02:08;;;;;;;3.35;0.70;;;15.90;99.90;;;;;;5098473;27;20043;-96
2023/08/03 01:04:34;;;;;;;2.92;0.95;;;16.10;99.90;;;;;;5098123;27;20045;-96
2023/08/03 01:07:00;;;;;;;3.83;0.80;;;15.60;99.90;;;;;;5082214;27;20034;-96
2023/08/03 01:09:26;;;;;;;3.05;0.70;;;16.10;99.90;;;;;;5097920;27;20155;-95
2023/08/03 01:11:52;;;;;;;2.00;0.68;;;15.90;99.90;;;;;;5081443;27;20116;-94
2023/08/03 01:14:18;;;;;;;1.42;0.60;;;16.00;99.90;;;;;;5097651;27;20660;-95
2023/08/03 01:16:44;;;;;;;1.88;0.65;;;15.90;99.90;;;;;;5098513;27;20039;-96
2023/08/03 01:19:13;;;;;;;2.65;0.82;;;16.10;99.90;;;;;;5094143;27;20528;-96
2023/08/03 01:21:40;;;;;;;3.92;0.68;;;15.80;99.90;;;;;;5098142;27;20095;-95
2023/08/03 01:24:06;;;;;;;3.35;0.90;;;15.80;99.90;;;;;;5111103;27;20042;-95
2023/08/03 01:26:32;;;;;;;3.15;0.90;;;16.00;99.90;;;;;;5085324;27;20038;-95
2023/08/03 01:28:58;;;;;;;1.10;0.50;;;16.20;99.90;;;;;;5118958;27;20035;-95
2023/08/03 01:31:24;;;;;;;1.65;0.82;;;15.90;99.90;;;;;;5084133;27;20039;-96
2023/08/03 01:33:50;;;;;;;1.25;0.75;;;16.10;99.90;;;;;;5084762;27;20042;-96
2023/08/03 01:36:15;;;;;;;4.82;1.00;;;15.80;99.90;;;;;;5068066;27;20151;-96
2023/08/03 01:39:14;;;;;;;3.88;0.70;;;15.90;99.90;;;;;;5084105;27;20043;-96
2023/08/03 01:41:41;;;;;;;2.05;0.52;;;15.90;99.90;;;;;;5049132;27;20063;-92
2023/08/03 01:44:28;;;;;;;6.28;0.80;;;15.80;99.90;;;;;;5083864;27;20970;-92
2023/08/03 01:46:56;;;;;;;1.53;0.70;;;16.10;99.90;;;;;;5085969;27;20099;-93
2023/08/03 01:49:22;;;;;;;;;;;15.70;99.90;;;;;;5071245;27;21003;-92
2023/08/03 01:51:49;;;;;;;3.78;0.88;;;15.70;99.90;;;;;;5094940;27;20281;-92
2023/08/03 01:54:15;;;;;;;2.75;0.85;;;15.80;99.90;;;;;;5117476;27;20034;-90
2023/08/03 01:56:42;;;;;;;3.03;0.70;;;16.00;99.90;;;;;;5096254;27;20047;-92
2023/08/03 01:59:08;;;;;;;2.93;0.93;;;15.80;99.90;;;;;;5115968;27;20031;-93
2023/08/03 02:01:33;;;;;;;6.47;1.00;;;16.00;99.90;;;;;;5118344;27;20111;-93
2023/08/03 02:03:59;;;;;;;5.90;1.10;;;15.70;99.90;;;;;;5115722;27;20058;-92
2023/08/03 02:06:25;;;;;;;7.53;1.15;;;15.70;99.90;;;;;;5090415;27;20038;-92
2023/08/03 02:08:51;;;;;;;2.55;0.90;;;15.80;99.90;;;;;;5108913;27;20034;-93
2023/08/03 02:11:16;;;;;;;1.88;0.65;;;15.80;99.90;;;;;;5101537;27;20041;-93
2023/08/03 02:13:42;;;;;;;2.10;0.80;;;15.80;99.90;;;;;;5099268;27;20105;-92
2023/08/03 02:16:10;;;;;;;3.58;0.68;;;16.00;99.90;;;;;;5074407;28;20047;-92
2023/08/03 02:18:36;;;;;;;4.63;0.77;;;15.90;99.90;;;;;;5080275;28;20485;-92
2023/08/03 02:21:02;;;;;;;4.80;0.70;;;15.70;99.90;;;;;;5100205;27;20069;-93
2023/08/03 02:23:27;;;;;;;1.38;0.68;;;15.80;99.90;;;;;;5093636;28;20035;-92
2023/08/03 02:25:53;;;;;;;2.28;0.73;;;16.10;99.90;;;;;;5079065;27;20042;-93
2023/08/03 02:28:19;;;;;;;2.22;0.70;;;16.10;99.90;;;;;;5084308;27;20039;-92
2023/08/03 02:30:44;;;;;;;2.72;0.88;;;15.80;99.90;;;;;;5081671;27;20345;-92
2023/08/03 02:33:10;;;;;;;2.17;0.80;;;15.80;99.90;;;;;;5083280;27;20034;-92
2023/08/03 02:35:39;;;;;;;1.38;0.68;;;15.90;99.90;;;;;;5114414;27;20077;-92
2023/08/03 02:38:05;;;;;;;1.17;0.55;;;15.80;99.90;;;;;;5101280;27;20045;-92
2023/08/03 02:40:31;;;;;;;2.40;0.70;;;16.00;99.90;;;;;;5080657;27;20031;-92
2023/08/03 02:42:56;;;;;;;1.33;0.68;;;16.10;99.90;;;;;;5099998;27;20100;-92
2023/08/03 02:45:22;;;;;;;3.13;0.60;;;15.80;99.90;;;;;;5094333;27;20104;-92
2023/08/03 02:47:48;;;;;;;1.92;0.60;;;16.10;99.90;;;;;;5083878;27;20459;-92
2023/08/03 02:50:14;;;;;;;2.78;0.70;;;15.80;99.90;;;;;;5080371;27;20067;-92
2023/08/03 02:52:39;;;;;;;1.08;0.63;;;16.10;99.90;;;;;;5127207;27;20043;-92
2023/08/03 02:55:05;;;;;;;3.92;0.70;;;15.80;99.90;;;;;;5083086;27;20139;-92
2023/08/03 02:57:31;;;;;;;3.67;0.80;;;16.10;99.90;;;;;;5099104;27;20061;-92
2023/08/03 02:59:57;;;;;;;0.50;0.50;;;16.10;99.90;;;;;;5110605;27;20035;-92
2023/08/03 03:02:26;;;;;;;1.00;0.50;;;16.10;99.90;;;;;;5091733;27;20058;-92
2023/08/03 03:04:51;;;;;;;3.50;0.93;;;16.10;99.90;;;;;;5096454;27;20043;-91
2023/08/03 03:07:20;;;;;;;1.33;0.60;;;16.10;99.90;;;;;;5087542;27;20035;-92
2023/08/03 03:09:46;;;;;;;2.75;0.52;;;16.10;99.90;;;;;;5090364;27;20114;-92
2023/08/03 03:12:11;;;;;;;1.60;0.70;;;15.80;99.90;;;;;;5076439;27;20074;-92
2023/08/03 03:14:37;;;;;;;2.13;0.80;;;16.10;99.90;;;;;;5086999;27;20043;-92
2023/08/03 03:17:03;;;;;;;1.23;0.70;;;15.80;99.90;;;;;;5083921;27;20031;-92
2023/08/03 03:19:29;;;;;;;3.93;0.97;;;15.80;99.90;;;;;;5116460;27;20172;-92
2023/08/03 03:21:55;;;;;;;1.05;0.52;;;15.80;99.90;;;;;;5103924;27;20121;-92
2023/08/03 03:24:20;;;;;;;5.68;0.95;;;15.80;99.90;;;;;;5102389;27;20038;-92
2023/08/03 03:26:46;;;;;;;0.98;0.60;;;15.90;99.90;;;;;;5094459;27;20569;-92
2023/08/03 03:29:12;;;;;;;3.05;0.88;;;16.10;99.90;;;;;;5100454;27;20076;-92
2023/08/03 03:31:38;;;;;;;1.27;0.80;;;16.00;99.90;;;;;;5077037;27;20454;-91
2023/08/03 03:34:04;;;;;;;1.90;0.80;;;16.00;99.90;;;;;;5120610;27;20038;-92
2023/08/03 03:36:29;;;;;;;2.75;0.93;;;16.10;99.90;;;;;;5103648;27;20473;-92
2023/08/03 03:38:55;;;;;;;1.48;0.73;;;16.10;99.90;;;;;;5102812;27;20039;-92
2023/08/03 03:41:21;;;;;;;2.97;1.10;;;16.10;99.90;;;;;;5078292;27;20393;-92
2023/08/03 03:43:47;;;;;;;3.22;0.90;;;16.10;99.90;;;;;;5102959;27;20097;-90
2023/08/03 03:46:13;;;;;;;2.70;1.23;;;15.90;99.90;;;;;;5084957;27;20088;-92
2023/08/03 03:48:38;;;;;;;2.60;1.00;;;16.10;99.90;;;;;;5113796;27;20484;-91
2023/08/03 03:51:04;;;;;;;2.67;1.08;;;16.10;99.90;;;;;;5099902;27;20453;-92
2023/08/03 03:53:30;;;;;;;4.53;1.33;;;16.20;99.90;;;;;;5114935;27;20427;-92
2023/08/03 03:55:55;;;;;;;2.20;1.63;;;15.90;99.90;;;;;;5082739;27;20043;-92
2023/08/03 03:58:21;;;;;;;1.45;1.08;;;15.90;99.90;;;;;;5081876;27;20042;-93
2023/08/03 04:00:47;;;;;;;3.70;1.38;;;16.10;99.90;;;;;;5102588;27;20038;-92
2023/08/03 04:03:13;;;;;;;1.58;1.02;;;16.10;99.90;;;;;;5118858;27;20073;-92
2023/08/03 04:05:39;;;;;;;3.15;1.30;;;15.90;99.90;;;;;;5082816;27;20126;-92
2023/08/03 04:08:05;;;;;;;3.65;1.60;;;15.90;99.90;;;;;;5096526;27;20031;-92
2023/08/03 04:10:31;;;;;;;2.25;1.08;;;16.20;99.90;;;;;;5097985;27;20035;-93
2023/08/03 04:12:57;;;;;;;3.30;1.60;;;15.90;99.90;;;;;;5113910;27;20078;-92
2023/08/03 04:15:23;;;;;;;5.88;1.60;;;16.10;99.90;;;;;;5100285;27;20043;-92
2023/08/03 04:17:49;;;;;;;2.13;1.30;;;16.10;99.90;;;;;;5110905;27;20039;-92
2023/08/03 04:20:16;;;;;;;1.90;1.35;;;16.20;99.90;;;;;;5098322;27;20039;-92
2023/08/03 04:22:42;;;;;;;3.45;1.60;;;15.90;99.90;;;;;;5105546;27;20171;-92
2023/08/03 04:25:08;;;;;;;1.98;1.73;;;16.20;99.90;;;;;;5102330;27;20536;-92
2023/08/03 04:27:34;;;;;;;3.13;1.67;;;16.30;99.90;;;;;;5120209;27;20500;-92
2023/08/03 04:30:00;;;;;;;4.40;1.73;;;16.30;99.90;;;;;;5103619;27;20034;-92
2023/08/03 04:32:26;;;;;;;2.65;1.70;;;15.90;99.90;;;;;;5100695;27;20103;-91
2023/08/03 04:34:52;;;;;;;3.03;2.35;;;16.20;99.90;;;;;;5101514;27;20142;-92
2023/08/03 04:37:17;;;;;;;5.80;2.70;;;16.10;99.90;;;;;;5117934;27;20046;-92
2023/08/03 04:39:43;;;;;;;3.25;2.22;;;16.00;99.90;;;;;;5097248;27;20039;-92
2023/08/03 04:42:09;;;;;;;6.13;2.97;;;16.00;99.90;;;;;;5081984;27;20046;-92
2023/08/03 04:44:35;;;;;;;6.72;2.90;;;16.10;99.90;;;;;;5119304;27;20087;-92
2023/08/03 04:47:00;;;;;;;3.90;2.50;;;16.00;99.90;;;;;;5127866;27;20066;-92
2023/08/03 04:49:26;;;;;;;5.40;2.92;;;16.30;99.90;;;;;;5084177;27;20127;-92
2023/08/03 04:51:52;;;;;;;5.53;2.92;;;16.40;99.90;;;;;;5084682;27;20043;-92
2023/08/03 04:54:18;;;;;;;6.93;2.60;;;16.20;99.90;;;;;;5099447;27;20039;-92
2023/08/03 04:56:44;;;;;;;7.20;2.80;;;16.50;99.90;;;;;;5114814;27;20042;-92
2023/08/03 04:59:10;;;;;;;4.95;2.72;;;16.20;99.90;;;;;;5085364;27;20102;-92
2023/08/03 05:01:36;;;;;;;7.90;3.55;;;16.40;99.90;;;;;;5102001;27;20050;-92
2023/08/03 05:04:01;;;;;;;4.85;2.80;;;16.40;99.90;;;;;;5077789;28;20047;-92
2023/08/03 05:06:27;;;;;;;6.28;3.55;;;16.50;99.90;;;;;;5079421;27;20066;-92
2023/08/03 05:08:53;;;;;;;4.85;3.13;;;16.50;99.90;;;;;;5095266;28;20502;-92
2023/08/03 05:11:19;;;;;;;5.80;3.05;;;16.30;99.90;;;;;;5080280;27;20250;-93
2023/08/03 05:13:45;;;;;;;6.67;2.97;;;16.50;99.90;;;;;;5115074;27;20039;-92
2023/08/03 05:16:11;;;;;;;5.20;2.78;;;16.40;99.90;;;;;;5096827;27;20088;-91
2023/08/03 05:18:37;;;;;;;5.80;2.83;;;16.50;99.90;;;;;;5098864;27;20043;-92
2023/08/03 05:21:03;;;;;;;4.60;2.97;;;16.60;99.90;;;;;;5094615;27;20042;-93
2023/08/03 05:23:28;;;;;;;3.92;2.85;;;16.40;99.90;;;;;;5096914;27;20035;-92
2023/08/03 05:25:55;;;;;;;6.15;3.20;;;16.50;99.90;;;;;;5113732;27;20045;-93
2023/08/03 05:28:22;;;;;;;5.95;3.22;;;16.60;99.90;;;;;;5066749;28;20035;-93
2023/08/03 05:30:48;;;;;;;4.77;3.17;;;16.60;99.90;;;;;;5113333;27;20043;-93
2023/08/03 05:33:14;;;;;;;6.32;3.33;;;16.20;99.90;;;;;;5114772;27;20483;-92
2023/08/03 05:35:40;;;;;;;6.10;3.30;;;16.30;99.90;;;;;;5110927;27;20083;-92
2023/08/03 05:38:06;;;;;;;5.25;3.55;;;16.50;99.90;;;;;;5092127;28;20036;-92
2023/08/03 05:40:32;;;;;;;5.13;3.03;;;16.40;99.90;;;;;;5093249;27;20046;-91
2023/08/03 05:42:58;;;;;;;5.57;3.10;;;16.50;99.90;;;;;;5091871;28;20044;-92
2023/08/03 05:45:44;;;;;;;4.72;3.60;;;16.20;99.90;;;;;;5108511;27;20397;-93
2023/08/03 05:48:20;;;;;;;4.18;3.38;;;16.30;99.90;;;;;;5116124;27;20070;-92
2023/08/03 05:50:49;;;;;;;3.95;2.97;;;16.30;99.90;;;;;;5094986;27;20136;-92
2023/08/03 05:53:51;;;;;;;4.97;3.35;;;16.50;99.90;;;;;;5116745;27;20122;-96
2023/08/03 05:56:25;;;;;;;3.53;2.80;;;16.20;99.90;;;;;;5105489;27;20149;-95
2023/08/03 05:59:05;;;;;;;7.22;2.92;;;16.20;99.90;;;;;;5096168;27;20594;-95
2023/08/03 06:05:41;;;;;;;5.22;3.22;;;16.50;99.90;;;;;;5093692;27;20122;-96
2023/08/03 06:08:27;;;;;;;4.00;3.00;;;16.70;99.90;;;;;;5104921;27;20035;-95
2023/08/03 06:10:55;;;;;;;3.38;2.80;;;17.60;99.90;;;;;;5106578;28;20095;-95
2023/08/03 06:13:26;;;;;;;3.78;2.85;;;17.90;99.90;;;;;;5112210;28;20038;-94
2023/08/03 06:15:55;;;;;;;5.35;2.80;;;18.20;99.90;;;;;;5115086;28;20410;-95
2023/08/03 06:18:24;;;;;;;2.70;2.25;;;19.30;99.90;;;;;;5093618;28;20657;-94
2023/08/03 06:20:51;;;;;;;1.83;1.65;;;20.40;99.90;;;;;;5108611;28;20023;-94
2023/08/03 06:23:28;;;;;;;3.13;1.60;;;21.30;99.90;;;;;;5114734;28;20050;-94
2023/08/03 06:25:55;;;;;;;1.50;1.08;;;22.00;99.90;;;;;;5109469;28;20382;-92
2023/08/03 06:28:49;;;;;;;2.35;1.10;;;22.60;99.90;;;;;;5115183;28;20110;-93
2023/08/03 06:31:41;;;;;;;2.97;1.23;;;22.40;99.90;;;;;;5113123;28;20042;-94
2023/08/03 06:34:14;;;;;;;1.13;0.98;;;22.00;99.90;;;;;;5099535;27;20039;-94
2023/08/03 06:36:42;;;;;;;1.52;1.15;;;21.70;99.90;;;;;;5090154;27;20099;-94
2023/08/03 06:39:08;;;;;;;1.67;1.20;;;21.20;99.90;;;;;;5115479;27;20104;-93
2023/08/03 06:41:34;;;;;;;1.20;0.90;;;20.70;99.90;;;;;;5083375;27;20035;-93
2023/08/03 06:44:00;;;;;;;1.10;1.00;;;20.20;99.90;;;;;;5079393;27;20125;-93
2023/08/03 06:46:26;;;;;;;1.33;1.03;;;20.00;99.90;;;;;;5074459;27;20117;-94
2023/08/03 06:48:52;;;;;;;2.08;1.20;;;19.60;99.90;;;;;;5099792;27;20035;-92
2023/08/03 06:51:19;;;;;;;1.48;0.95;;;19.60;99.90;;;;;;5093634;27;20050;-93
2023/08/03 06:53:48;;;;;;;1.38;0.98;;;19.60;99.90;;;;;;5111245;27;20051;-93
2023/08/03 06:56:14;;;;;;;1.80;1.13;;;19.50;99.90;;;;;;5101645;27;20127;-93
2023/08/03 06:58:40;;;;;;;1.45;1.02;;;19.40;99.90;;;;;;5083643;27;20055;-93
2023/08/03 07:01:06;;;;;;;1.58;1.08;;;19.20;99.90;;;;;;5081741;28;20497;-93
2023/08/03 07:03:32;;;;;;;1.27;1.10;;;18.90;99.90;;;;;;5079612;27;20130;-93
2023/08/03 07:05:59;;;;;;;1.52;1.10;;;18.80;99.90;;;;;;5080569;28;20123;-94
2023/08/03 07:08:24;;;;;;;;;;;18.80;99.90;;;;;;5117552;27;20091;-95
2023/08/03 07:10:50;;;;;;;1.20;0.90;;;18.70;99.90;;;;;;5099411;27;20295;-93
2023/08/03 07:13:22;;;;;;;3.17;0.93;;;18.90;99.90;;;;;;5086992;27;20391;-95
2023/08/03 07:15:47;;;;;;;2.00;0.75;;;20.60;99.90;;;;;;5098274;27;20044;-95
2023/08/03 07:18:13;;;;;;;1.13;0.73;;;20.60;99.90;;;;;;5117648;27;20118;-95
2023/08/03 07:20:39;;;;;;;0.82;0.60;;;21.00;99.90;;;;;;5116516;27;20112;-95
2023/08/03 07:23:07;;;;;;;0.77;0.52;;;20.70;99.90;;;;;;5114963;27;20035;-95
2023/08/03 07:25:33;;;;;;;1.77;0.60;;;20.20;99.90;;;;;;5116876;27;20043;-94
2023/08/03 07:28:02;;;;;;;1.33;0.52;;;19.70;99.90;;;;;;5116490;27;20089;-95
2023/08/03 07:30:28;;;;;;;1.83;0.65;;;19.30;99.90;;;;;;5116614;27;20035;-96
2023/08/03 07:33:00;;;;;;;1.17;0.60;;;18.90;99.90;;;;;;5095384;28;20133;-96
2023/08/03 07:35:29;;;;;;;1.48;0.50;;;18.60;99.90;;;;;;5112695;27;20096;-96
2023/08/03 07:38:16;;;;;;;2.20;0.68;;;18.30;99.90;;;;;;5113012;27;20039;-96
2023/08/03 07:40:53;;;;;;;1.33;0.50;;;18.20;99.90;;;;;;5097712;27;20046;-96
2023/08/03 07:43:23;;;;;;;1.42;0.43;;;18.50;99.90;;;;;;5085149;27;20482;-95
2023/08/03 07:45:52;;;;;;;1.92;0.40;;;19.20;99.90;;;;;;5101192;27;20489;-96
2023/08/03 07:48:20;;;;;;;1.25;0.60;;;20.40;99.90;;;;;;5108788;27;20103;-96
2023/08/03 07:51:33;;;;;;;1.95;0.45;;;20.90;99.90;;;;;;5096005;28;20496;-95
2023/08/03 07:54:02;;;;;;;2.33;0.50;;;20.40;99.90;;;;;;5112398;28;20071;-95
2023/08/03 07:56:38;;;;;;;1.92;0.40;;;19.80;99.90;;;;;;5108999;27;20046;-96
2023/08/03 07:59:04;;;;;;;1.13;0.50;;;20.20;99.90;;;;;;5100355;27;20095;-94
2023/08/03 08:01:38;;;;;;;1.17;0.40;;;21.20;99.90;;;;;;5117186;27;20092;-94
2023/08/03 08:04:04;;;;;;;2.25;0.50;;;22.10;99.90;;;;;;5116255;27;20556;-92
2023/08/03 08:06:30;;;;;;;1.98;0.40;;;22.70;99.90;;;;;;5097348;27;20079;-94
2023/08/03 08:08:56;;;;;;;2.33;0.40;;;22.40;99.90;;;;;;5119550;27;20133;-94
2023/08/03 08:11:24;;;;;;;2.22;0.50;;;22.00;99.90;;;;;;5116587;27;20035;-95
2023/08/03 08:18:13;;;;;;;;;;;;;;;;;;;;;
2023/08/03 08:29:58;;;;;;;1.70;0.50;;;21.20;99.90;;;;;;5067387;28;20049;-95
2023/08/03 08:32:24;;;;;;;2.28;0.50;;;21.00;99.90;;;;;;5034652;28;20436;-94
2023/08/03 08:34:50;;;;;;;4.47;0.73;;;20.90;99.90;;;;;;5011078;28;20178;-93
2023/08/03 08:37:22;;;;;;;2.75;0.50;;;21.30;99.90;;;;;;5008170;28;20036;-96
2023/08/03 08:39:47;;;;;;;3.15;0.52;;;21.70;99.90;;;;;;5024615;28;20072;-94
2023/08/03 08:42:13;;;;;;;2.72;0.60;;;21.20;99.90;;;;;;5006351;28;20083;-94
2023/08/03 08:44:39;;;;;;;1.98;0.65;;;20.60;99.90;;;;;;5039915;28;20406;-94
2023/08/03 08:47:06;;;;;;;2.03;0.30;;;20.40;99.90;;;;;;5006789;28;20133;-94
2023/08/03 08:49:32;;;;;;;1.75;0.50;;;21.10;99.90;;;;;;5040763;28;20157;-95
2023/08/03 08:51:59;;;;;;;2.78;0.75;;;21.90;99.90;;;;;;5007375;28;20041;-94
2023/08/03 08:54:35;;;;;;;3.17;0.80;;;22.00;99.90;;;;;;5014709;28;20451;-94
2023/08/03 08:57:09;;;;;;;0.93;0.43;;;21.20;99.90;;;;;;5034895;28;20040;-96
2023/08/03 09:00:05;;;;;;;1.65;0.60;;;21.10;99.90;;;;;;5045380;28;20072;-96
2023/08/03 09:02:32;;;;;;;1.50;0.68;;;21.50;99.90;;;;;;5039524;28;20623;-86
2023/08/03 09:05:14;;;;;;;8.45;0.70;;;21.30;99.90;;;;;;5045464;28;20048;-88
2023/08/03 09:07:40;;;;;;;1.88;0.40;;;20.80;99.90;;;;;;5015982;28;20036;-87
2023/08/03 09:10:06;;;;;;;4.40;1.50;;;20.40;99.90;;;;;;5007968;28;20042;-89
2023/08/03 09:12:32;;;;;;;1.92;0.68;;;20.10;99.90;;;;;;5019259;28;20041;-87
2023/08/03 09:14:58;;;;;;;2.45;0.75;;;20.20;99.90;;;;;;5013858;28;20128;-87
2023/08/03 09:17:24;;;;;;;3.30;0.50;;;20.60;99.90;;;;;;5025522;28;20044;-87
2023/08/03 09:19:51;;;;;;;4.03;0.73;;;20.60;99.90;;;;;;5044186;28;20041;-87
2023/08/03 09:22:25;;;;;;;2.03;0.75;;;20.50;99.90;;;;;;5007917;28;20051;-92
2023/08/03 09:25:10;;;;;;;1.88;0.80;;;20.10;99.90;;;;;;5038954;28;20036;-93
2023/08/03 09:27:47;;;;;;;2.80;0.90;;;19.80;99.90;;;;;;5036826;28;20064;-92
2023/08/03 09:30:13;;;;;;;4.38;1.15;;;19.60;99.90;;;;;;5041346;28;20123;-91
2023/08/03 09:32:39;;;;;;;2.83;0.88;;;19.40;99.90;;;;;;4995973;28;20080;-91
2023/08/03 09:35:24;;;;;;;2.20;0.68;;;19.50;99.90;;;;;;5035597;28;20039;-91
2023/08/03 09:37:52;;;;;;;4.55;1.02;;;19.70;99.90;;;;;;5037713;28;20049;-93
2023/08/03 09:40:20;;;;;;;3.00;0.98;;;20.00;99.90;;;;;;5020550;28;20055;-94
2023/08/03 09:42:47;;;;;;;;;;;20.30;99.90;;;;;;5018683;28;20047;-94
2023/08/03 09:45:23;;;;;;;5.53;1.17;;;20.50;99.90;;;;;;5035329;28;19924;-96
2023/08/03 09:47:50;;;;;;;3.15;1.10;;;20.70;99.90;;;;;;5020310;28;20029;-96
2023/08/03 09:50:16;;;;;;;4.38;1.00;;;20.90;99.90;;;;;;5037030;28;20040;-95
2023/08/03 09:52:46;;;;;;;4.68;1.30;;;20.90;99.90;;;;;;5023826;28;20132;-96
2023/08/03 09:55:20;;;;;;;3.08;0.90;;;20.90;99.90;;;;;;5032797;28;20171;-95
2023/08/03 09:58:05;;;;;;;2.50;0.95;;;21.20;99.90;;;;;;5027102;28;20079;-95
2023/08/03 10:00:33;;;;;;;2.83;0.52;;;21.50;99.90;;;;;;5035885;28;20036;-95
2023/08/03 10:03:11;;;;;;;2.92;0.80;;;21.40;99.90;;;;;;5036737;28;20037;-96
2023/08/03 10:05:40;;;;;;;3.20;1.05;;;21.10;99.90;;;;;;5033537;28;20050;-96
2023/08/03 10:08:14;;;;;;;3.33;0.90;;;20.70;99.90;;;;;;5039046;28;20495;-95
2023/08/03 10:10:45;;;;;;;4.65;1.30;;;20.20;99.90;;;;;;5037256;28;20075;-95
2023/08/03 10:13:11;;;;;;;4.05;1.10;;;20.00;99.90;;;;;;5048533;28;20044;-94
2023/08/03 10:15:40;;;;;;;3.85;1.02;;;19.90;99.90;;;;;;5043778;28;20041;-95
2023/08/03 10:18:05;;;;;;;3.33;1.20;;;19.80;99.90;;;;;;5034227;28;20101;-94
2023/08/03 10:20:33;;;;;;;3.13;1.23;;;19.70;99.90;;;;;;5020949;28;20052;-95
2023/08/03 10:23:15;;;;;;;3.33;1.08;;;19.90;99.90;;;;;;5049790;28;20068;-95
2023/08/03 10:25:58;;;;;;;5.07;1.35;;;20.20;99.90;;;;;;5036545;28;20143;-95
2023/08/03 10:28:50;;;;;;;2.97;1.23;;;20.00;99.90;;;;;;5047595;28;20098;-95
2023/08/03 10:31:19;;;;;;;2.38;1.13;;;19.80;99.90;;;;;;5028036;28;20134;-95
2023/08/03 10:33:50;;;;;;;4.22;1.23;;;19.50;99.90;;;;;;5014055;28;20051;-94
2023/08/03 10:36:28;;;;;;;4.75;1.40;;;19.40;99.90;;;;;;5037947;28;20052;-95
2023/08/03 10:39:02;;;;;;;4.68;1.33;;;19.50;99.90;;;;;;5042098;28;20036;-95
2023/08/03 10:41:29;;;;;;;5.30;1.13;;;19.60;99.90;;;;;;5026356;28;20040;-96
2023/08/03 10:44:06;;;;;;;3.40;0.95;;;19.60;99.90;;;;;;5037043;28;20037;-95
2023/08/03 10:46:38;;;;;;;5.50;1.50;;;19.60;99.90;;;;;;5037254;28;20045;-94
2023/08/03 10:49:19;;;;;;;5.07;1.65;;;19.60;99.90;;;;;;5037490;28;20033;-95
2023/08/03 10:51:49;;;;;;;4.82;1.45;;;19.80;99.90;;;;;;5036948;28;20040;-94
2023/08/03 10:54:20;;;;;;;4.18;1.27;;;20.10;99.90;;;;;;5032804;28;20143;-95
2023/08/03 10:57:04;;;;;;;4.63;1.13;;;20.40;99.90;;;;;;5050104;28;20066;-95
2023/08/03 10:59:42;;;;;;;5.95;1.40;;;20.40;99.90;;;;;;5037672;28;20171;-96
2023/08/03 11:02:09;;;;;;;;;;;20.40;99.90;;;;;;5054076;28;20076;-95
2023/08/03 11:04:35;;;;;;;3.30;0.85;;;20.70;99.90;;;;;;5036001;28;19916;-95
2023/08/03 11:07:06;;;;;;;5.50;0.70;;;20.90;99.90;;;;;;5001186;28;20064;-96
2023/08/03 11:09:32;;;;;;;1.70;0.75;;;20.80;99.90;;;;;;5031615;28;20028;-95
2023/08/03 11:11:59;;;;;;;4.15;1.00;;;20.80;99.90;;;;;;5021125;28;20053;-95
2023/08/03 11:14:28;;;;;;;4.22;1.10;;;20.60;99.90;;;;;;5035904;28;20037;-96
2023/08/03 11:16:54;;;;;;;4.75;1.23;;;20.40;99.90;;;;;;5033120;28;20047;-95
2023/08/03 11:19:22;;;;;;;3.40;0.90;;;20.40;99.90;;;;;;5037652;28;20566;-95
2023/08/03 11:21:48;;;;;;;2.92;0.73;;;20.30;99.90;;;;;;5038960;28;20037;-95
2023/08/03 11:24:14;;;;;;;2.97;0.70;;;20.30;99.90;;;;;;4999790;28;20060;-96
2023/08/03 11:26:44;;;;;;;1.95;0.63;;;20.20;99.90;;;;;;5021000;28;20080;-95
2023/08/03 11:29:10;;;;;;;2.03;0.50;;;20.40;99.90;;;;;;5035344;28;20075;-95
2023/08/03 11:31:38;;;;;;;5.32;0.60;;;20.40;99.90;;;;;;5006405;28;20115;-94
2023/08/03 11:34:05;;;;;;;3.95;0.80;;;20.50;99.90;;;;;;5036413;28;20072;-95
2023/08/03 11:36:31;;;;;;;2.83;0.60;;;20.40;99.90;;;;;;5042640;28;20123;-96
2023/08/03 11:38:59;;;;;;;0.93;0.50;;;20.40;99.90;;;;;;5040118;28;20179;-95
2023/08/03 11:41:25;;;;;;;3.67;0.55;;;20.60;99.90;;;;;;5023684;28;20036;-96
2023/08/03 11:43:57;;;;;;;1.85;0.50;;;20.70;99.90;;;;;;5039570;28;20045;-95
2023/08/03 11:46:27;;;;;;;2.53;1.17;;;20.70;99.90;;;;;;5040484;28;20449;-96
2023/08/03 11:48:56;;;;;;;1.58;0.50;;;20.80;99.90;;;;;;5032327;28;20039;-96
2023/08/03 11:51:41;;;;;;;1.50;0.32;;;20.80;99.90;;;;;;5040339;28;20052;-95
2023/08/03 11:54:10;;;;;;;1.25;0.43;;;20.90;99.90;;;;;;5050121;28;20161;-96
2023/08/03 11:56:51;;;;;;;2.25;0.55;;;21.00;99.90;;;;;;5042548;28;20109;-96
2023/08/03 11:59:19;;;;;;;2.40;0.55;;;20.80;99.90;;;;;;5051399;28;20049;-96
2023/08/03 12:01:51;;;;;;;1.88;0.40;;;20.80;99.90;;;;;;5044320;28;20103;-96
2023/08/03 12:04:26;;;;;;;1.30;0.50;;;20.70;99.90;;;;;;5040936;28;20044;-96
2023/08/03 12:07:27;;;;;;;1.27;0.40;;;20.90;99.90;;;;;;5040171;28;20048;-96
2023/08/03 12:10:10;;;;;;;5.47;0.63;;;20.80;99.90;;;;;;5038773;28;20090;-96
2023/08/03 12:12:36;;;;;;;2.67;0.50;;;20.90;99.90;;;;;;5037086;28;20041;-96
2023/08/03 12:19:13;;;;;;;2.05;0.70;;;20.70;99.90;;;;;;5022847;28;20047;-96
2023/08/03 12:25:20;;;;;;;3.10;0.93;;;20.80;99.90;;;;;;5060154;22;20041;-96
2023/08/03 13:10:19;;;;;;;2.60;0.90;;;19.30;99.90;;;;;;4991812;28;20054;-96
2023/08/03 13:20:38;;;;;;;5.20;1.30;;;19.10;99.90;;;;;;5011193;28;20029;-95
2023/08/03 13:23:12;;;;;;;6.13;1.42;;;19.20;99.90;;;;;;5006519;28;20057;-95
2023/08/03 13:25:49;;;;;;;3.90;1.00;;;19.50;99.90;;;;;;4992284;28;20057;-96
2023/08/03 13:28:35;;;;;;;5.07;1.20;;;19.50;99.90;;;;;;4994115;28;20042;-95
2023/08/03 13:31:03;;;;;;;3.28;1.20;;;19.40;99.90;;;;;;5002077;28;20062;-95
2023/08/03 13:33:29;;;;;;;5.53;1.20;;;19.60;99.90;;;;;;4999726;28;20045;-96
2023/08/03 13:35:55;;;;;;;3.40;1.00;;;19.60;99.90;;;;;;4973384;28;20037;-96
2023/08/03 13:38:25;;;;;;;3.00;0.90;;;19.20;99.90;;;;;;4995083;28;20040;-95
2023/08/03 13:40:51;;;;;;;2.53;1.05;;;19.20;99.90;;;;;;4972906;28;20495;-94
2023/08/03 13:44:12;;;;;;;3.95;1.05;;;18.60;99.90;;;;;;4983907;28;20049;-96
2023/08/03 13:47:16;;;;;;;2.33;0.82;;;18.30;99.90;;;;;;4925371;28;20520;-96
2023/08/03 13:49:47;;;;;;;3.80;1.30;;;17.90;99.90;;;;;;5007864;28;20514;-96
2023/08/03 13:52:39;;;;;;;5.50;1.35;;;17.90;99.90;;;;;;4993857;28;20431;-95
2023/08/03 13:55:11;;;;;;;4.20;1.08;;;17.80;99.90;;;;;;4991827;28;20072;-96
2023/08/03 13:57:42;;;;;;;4.13;1.40;;;18.50;99.90;;;;;;4995330;28;20052;-96
2023/08/03 14:00:10;;;;;;;4.78;1.60;;;17.70;99.90;;;;;;5000447;28;20061;-94
2023/08/03 14:02:36;;;;;;;5.00;2.00;;;17.80;99.90;;;;;;5007045;28;20089;-96
2023/08/03 14:05:10;;;;;;;3.72;1.75;;;17.70;99.90;;;;;;4999937;28;20108;-96
2023/08/03 14:07:38;;;;;;;4.60;1.58;;;17.90;99.90;;;;;;5002937;28;20034;-96
2023/08/03 14:10:07;;;;;;;5.07;2.20;;;17.70;99.90;;;;;;4995913;28;20480;-96
2023/08/03 14:12:33;;;;;;;4.05;1.70;;;17.60;99.90;;;;;;4997537;28;20041;-96
2023/08/03 14:15:02;;;;;;;6.50;2.17;;;17.70;99.90;;;;;;4981971;28;20076;-93